createdAt,value
2024-02-02T00:02:12.965Z,4.80
2024-02-02T00:04:47.892Z,4.80
2024-02-02T00:07:27.570Z,4.70
2024-02-02T00:10:11.372Z,4.70
2024-02-02T00:12:48.811Z,4.70
2024-02-02T00:15:24.393Z,4.70
2024-02-02T00:18:00.599Z,4.70
2024-02-02T00:20:35.638Z,4.70
2024-02-02T00:23:14.563Z,4.70
2024-02-02T00:25:49.864Z,4.60
2024-02-02T00:28:23.705Z,4.60
2024-02-02T00:30:58.710Z,4.60
2024-02-02T00:33:37.008Z,4.50
2024-02-02T00:36:12.563Z,4.60
2024-02-02T00:38:50.379Z,4.60
2024-02-02T00:41:26.211Z,4.50
2024-02-02T00:44:00.604Z,4.50
2024-02-02T00:46:35.725Z,4.50
2024-02-02T00:49:10.712Z,4.50
2024-02-02T00:51:46.299Z,4.40
2024-02-02T00:54:20.644Z,4.40
2024-02-02T00:57:01.584Z,4.40
2024-02-02T00:59:36.642Z,4.40
2024-02-02T01:02:11.932Z,4.30
2024-02-02T01:04:47.046Z,4.30
2024-02-02T01:07:21.771Z,4.30
2024-02-02T01:09:56.680Z,4.30
2024-02-02T01:12:34.628Z,4.30
2024-02-02T01:15:10.777Z,4.30
2024-02-02T01:17:47.192Z,4.20
2024-02-02T01:20:22.653Z,4.20
2024-02-02T01:22:58.489Z,4.30
2024-02-02T01:25:33.920Z,4.20
2024-02-02T01:28:13.792Z,4.30
2024-02-02T01:30:49.644Z,4.20
2024-02-02T01:33:24.707Z,4.30
2024-02-02T01:35:59.830Z,4.30
2024-02-02T01:38:35.019Z,4.30
2024-02-02T01:41:09.816Z,4.30
2024-02-02T01:43:48.271Z,4.30
2024-02-02T01:46:22.747Z,4.30
2024-02-02T01:48:59.311Z,4.40
2024-02-02T01:51:35.551Z,4.40
2024-02-02T01:54:11.098Z,4.40
2024-02-02T01:56:46.050Z,4.40
2024-02-02T01:59:21.705Z,4.40
2024-02-02T02:01:56.520Z,4.40
2024-02-02T02:04:31.663Z,4.40
2024-02-02T02:07:07.143Z,4.40
2024-02-02T02:09:42.624Z,4.40
2024-02-02T02:12:17.835Z,4.40
2024-02-02T02:14:56.983Z,4.40
2024-02-02T02:17:31.676Z,4.40
2024-02-02T02:20:09.407Z,4.40
2024-02-02T02:22:45.186Z,4.40
2024-02-02T02:25:19.531Z,4.40
2024-02-02T02:27:56.765Z,4.30
2024-02-02T02:30:31.719Z,4.30
2024-02-02T02:33:07.532Z,4.30
2024-02-02T02:35:43.231Z,4.30
2024-02-02T02:38:20.235Z,4.30
2024-02-02T02:40:55.235Z,4.30
2024-02-02T02:43:29.619Z,4.30
2024-02-02T02:46:05.063Z,4.20
2024-02-02T02:48:40.143Z,4.20
2024-02-02T02:51:14.928Z,4.20
2024-02-02T02:53:52.969Z,4.20
2024-02-02T02:56:27.934Z,4.20
2024-02-02T02:59:03.633Z,4.20
2024-02-02T03:01:38.599Z,4.20
2024-02-02T03:04:13.880Z,4.20
2024-02-02T03:06:48.992Z,4.20
2024-02-02T03:09:27.915Z,4.30
2024-02-02T03:12:03.549Z,4.30
2024-02-02T03:14:38.334Z,4.30
2024-02-02T03:17:12.831Z,4.20
2024-02-02T03:19:48.310Z,4.20
2024-02-02T03:22:24.441Z,4.20
2024-02-02T03:24:58.986Z,4.20
2024-02-02T03:27:37.107Z,4.20
2024-02-02T03:30:14.399Z,4.10
2024-02-02T03:32:52.108Z,4.10
2024-02-02T03:35:29.489Z,4.10
2024-02-02T03:38:05.289Z,4.10
2024-02-02T03:40:39.926Z,4.10
2024-02-02T03:43:20.484Z,4.00
2024-02-02T03:45:56.039Z,4.00
2024-02-02T03:48:30.957Z,4.00
2024-02-02T03:51:05.790Z,4.00
2024-02-02T03:53:41.192Z,4.10
2024-02-02T03:56:16.115Z,4.00
2024-02-02T03:58:54.042Z,4.00
2024-02-02T04:01:29.452Z,4.00
2024-02-02T04:04:01.918Z,3.90
2024-02-02T04:06:38.540Z,3.90
2024-02-02T04:09:14.015Z,3.80
2024-02-02T04:11:49.420Z,3.80
2024-02-02T04:14:27.786Z,3.70
2024-02-02T04:17:00.973Z,3.70
2024-02-02T04:19:36.159Z,3.70
2024-02-02T04:22:11.003Z,3.70
2024-02-02T04:24:45.983Z,3.70
2024-02-02T04:27:20.912Z,3.70
2024-02-02T04:29:58.368Z,3.70
2024-02-02T04:32:34.174Z,3.70
2024-02-02T04:35:11.173Z,3.70
2024-02-02T04:37:47.023Z,3.70
2024-02-02T04:40:22.202Z,3.70
2024-02-02T04:42:57.131Z,3.80
2024-02-02T04:45:34.669Z,3.70
2024-02-02T04:48:11.461Z,3.80
2024-02-02T04:50:45.861Z,3.80
2024-02-02T04:53:21.854Z,3.80
2024-02-02T04:55:57.174Z,3.80
2024-02-02T04:58:32.697Z,3.80
2024-02-02T05:01:13.254Z,3.80
2024-02-02T05:03:48.146Z,3.80
2024-02-02T05:06:25.679Z,3.90
2024-02-02T05:09:00.948Z,3.90
2024-02-02T05:11:36.199Z,3.90
2024-02-02T05:14:12.223Z,3.90
2024-02-02T05:16:49.579Z,3.90
2024-02-02T05:19:24.978Z,3.90
2024-02-02T05:21:59.690Z,3.90
2024-02-02T05:24:44.073Z,3.90
2024-02-02T05:27:20.377Z,4.00
2024-02-02T05:29:55.912Z,4.00
2024-02-02T05:32:35.741Z,4.00
2024-02-02T05:35:12.155Z,4.00
2024-02-02T05:37:46.715Z,4.00
2024-02-02T05:40:21.527Z,4.00
2024-02-02T05:42:57.148Z,4.00
2024-02-02T05:45:33.927Z,4.00
2024-02-02T05:48:12.625Z,4.00
2024-02-02T05:50:53.394Z,4.00
2024-02-02T05:53:30.203Z,4.10
2024-02-02T05:56:10.230Z,4.00
2024-02-02T05:58:47.103Z,4.10
2024-02-02T06:01:23.676Z,4.00
2024-02-02T06:04:04.353Z,4.00
2024-02-02T06:06:40.229Z,4.00
2024-02-02T06:09:17.624Z,4.00
2024-02-02T06:11:55.127Z,4.00
2024-02-02T06:14:33.162Z,3.90
2024-02-02T06:17:12.392Z,3.90
2024-02-02T06:19:52.135Z,3.90
2024-02-02T06:22:35.336Z,3.90
2024-02-02T06:25:14.842Z,3.90
2024-02-02T06:27:49.569Z,3.90
2024-02-02T06:30:27.819Z,3.90
2024-02-02T06:33:04.422Z,3.90
2024-02-02T06:35:48.747Z,3.90
2024-02-02T06:38:27.149Z,3.90
2024-02-02T06:41:04.685Z,3.90
2024-02-02T06:43:41.009Z,3.90
2024-02-02T06:46:16.043Z,3.90
2024-02-02T06:48:54.977Z,3.90
2024-02-02T06:51:27.336Z,3.90
2024-02-02T06:54:08.036Z,4.00
2024-02-02T06:56:46.805Z,4.00
2024-02-02T06:59:47.662Z,4.00
2024-02-02T07:02:34.560Z,4.00
2024-02-02T07:05:12.787Z,4.00
2024-02-02T07:07:59.167Z,4.00
2024-02-02T07:10:40.537Z,4.10
2024-02-02T07:13:20.266Z,4.10
2024-02-02T07:15:58.599Z,4.10
2024-02-02T07:18:43.525Z,4.10
2024-02-02T07:21:21.057Z,4.20
2024-02-02T07:23:59.400Z,4.20
2024-02-02T07:26:36.458Z,4.20
2024-02-02T07:29:22.950Z,4.30
2024-02-02T07:32:00.601Z,4.40
2024-02-02T07:34:49.915Z,4.40
2024-02-02T07:37:23.612Z,4.40
2024-02-02T07:40:05.006Z,4.50
2024-02-02T07:45:30.299Z,4.60
2024-02-02T07:48:08.431Z,4.60
2024-02-02T07:50:56.863Z,4.60
2024-02-02T07:53:35.556Z,4.60
2024-02-02T07:56:18.019Z,4.70
2024-02-02T07:58:56.823Z,4.70
2024-02-02T08:01:38.376Z,4.70
2024-02-02T08:04:19.675Z,4.80
2024-02-02T08:06:56.203Z,4.80
2024-02-02T08:09:34.012Z,4.90
2024-02-02T08:12:14.864Z,4.90
2024-02-02T08:14:55.204Z,4.90
2024-02-02T08:17:36.699Z,5.00
2024-02-02T08:20:20.726Z,5.00
2024-02-02T08:23:02.032Z,5.10
2024-02-02T08:25:42.039Z,5.10
2024-02-02T08:28:20.943Z,5.20
2024-02-02T08:30:59.515Z,5.20
2024-02-02T08:33:34.866Z,5.20
2024-02-02T08:36:19.764Z,5.20
2024-02-02T08:38:58.700Z,5.30
2024-02-02T08:41:34.459Z,5.30
2024-02-02T08:44:18.898Z,5.40
2024-02-02T08:46:55.097Z,5.40
2024-02-02T08:50:10.131Z,5.40
2024-02-02T08:52:38.886Z,5.50
2024-02-02T08:55:38.745Z,5.60
2024-02-02T08:58:21.594Z,5.60
2024-02-02T09:01:02.649Z,5.70
2024-02-02T09:03:49.642Z,5.70
2024-02-02T09:06:57.387Z,5.80
2024-02-02T09:09:45.887Z,5.90
2024-02-02T09:12:30.495Z,6.10
2024-02-02T09:15:47.505Z,6.40
2024-02-02T09:18:33.343Z,6.60
2024-02-02T09:21:15.163Z,6.90
2024-02-02T09:24:02.942Z,7.20
2024-02-02T09:26:56.475Z,7.30
2024-02-02T09:29:41.846Z,7.30
2024-02-02T09:32:41.896Z,7.30
2024-02-02T09:35:42.816Z,7.30
2024-02-02T09:38:23.337Z,7.40
2024-02-02T09:41:34.701Z,7.40
2024-02-02T09:44:29.287Z,7.50
2024-02-02T09:47:20.756Z,7.60
2024-02-02T09:50:16.364Z,7.70
2024-02-02T09:55:55.604Z,7.70
2024-02-02T09:58:34.864Z,7.70
2024-02-02T10:01:16.276Z,7.80
2024-02-02T10:04:00.942Z,7.90
2024-02-02T10:06:52.575Z,7.90
2024-02-02T10:09:57.826Z,7.90
2024-02-02T10:16:18.591Z,8.20
2024-02-02T10:19:23.863Z,8.30
2024-02-02T10:25:13.819Z,8.20
2024-02-02T10:28:36.343Z,8.40
2024-02-02T10:31:33.369Z,8.30
2024-02-02T10:34:22.110Z,8.30
2024-02-02T10:40:43.060Z,8.50
2024-02-02T10:43:53.885Z,8.50
2024-02-02T10:46:36.241Z,8.50
2024-02-02T10:49:48.301Z,8.40
2024-02-02T10:52:50.029Z,8.30
2024-02-02T10:55:42.211Z,8.10
2024-02-02T10:58:30.121Z,8.00
2024-02-02T11:01:20.519Z,7.80
2024-02-02T11:04:05.063Z,7.80
2024-02-02T11:06:48.492Z,7.70
2024-02-02T11:10:04.363Z,7.60
2024-02-02T11:12:48.730Z,7.60
2024-02-02T11:15:40.260Z,7.60
2024-02-02T11:18:43.789Z,7.60
2024-02-02T11:21:40.366Z,7.50
2024-02-02T11:24:36.802Z,7.50
2024-02-02T11:34:17.960Z,7.40
2024-02-02T11:46:29.293Z,7.40
2024-02-02T11:49:37.522Z,7.40
2024-02-02T11:56:14.631Z,7.30
2024-02-02T12:08:49.147Z,7.20
2024-02-02T12:11:36.668Z,7.20
2024-02-02T12:14:40.115Z,7.20
2024-02-02T12:20:53.194Z,7.20
2024-02-02T12:23:53.987Z,7.20
2024-02-02T12:26:45.788Z,7.20
2024-02-02T12:32:35.270Z,7.30
2024-02-02T12:35:17.712Z,7.30
2024-02-02T12:37:51.629Z,7.30
2024-02-02T12:40:42.766Z,7.30
2024-02-02T12:43:29.253Z,7.30
2024-02-02T12:46:18.084Z,7.40
2024-02-02T12:48:57.368Z,7.40
2024-02-02T12:51:43.422Z,7.40
2024-02-02T12:54:24.270Z,7.50
2024-02-02T12:57:05.442Z,7.40
2024-02-02T12:59:53.962Z,7.40
2024-02-02T13:02:37.353Z,7.40
2024-02-02T13:05:28.436Z,7.30
2024-02-02T13:11:07.635Z,7.30
2024-02-02T13:14:05.988Z,7.30
2024-02-02T13:16:51.918Z,7.20
2024-02-02T13:19:39.076Z,7.30
2024-02-02T13:22:28.189Z,7.20
2024-02-02T13:25:17.996Z,7.20
2024-02-02T13:28:00.755Z,7.10
2024-02-02T13:30:39.458Z,7.10
2024-02-02T13:33:31.800Z,7.10
2024-02-02T13:36:11.114Z,7.20
2024-02-02T13:39:03.489Z,7.10
2024-02-02T13:41:43.393Z,7.00
2024-02-02T13:44:32.962Z,7.00
2024-02-02T13:47:30.041Z,7.00
2024-02-02T13:50:34.441Z,7.00
2024-02-02T13:53:12.167Z,7.00
2024-02-02T13:56:02.489Z,6.90
2024-02-02T13:58:47.877Z,7.00
2024-02-02T14:01:33.843Z,7.00
2024-02-02T14:04:13.472Z,7.00
2024-02-02T14:06:55.041Z,7.00
2024-02-02T14:09:34.766Z,6.90
2024-02-02T14:12:16.422Z,6.90
2024-02-02T14:14:57.347Z,6.90
2024-02-02T14:17:36.107Z,6.90
2024-02-02T14:20:16.754Z,6.90
2024-02-02T14:22:56.314Z,6.90
2024-02-02T14:25:39.174Z,6.80
2024-02-02T14:28:20.850Z,6.80
2024-02-02T14:31:07.020Z,6.70
2024-02-02T14:33:47.538Z,6.70
2024-02-02T14:36:26.830Z,6.60
2024-02-02T14:39:17.755Z,6.60
2024-02-02T14:42:00.215Z,6.60
2024-02-02T14:44:39.660Z,6.50
2024-02-02T14:47:17.378Z,6.50
2024-02-02T14:49:58.051Z,6.50
2024-02-02T14:52:36.108Z,6.40
2024-02-02T14:55:33.644Z,6.40
2024-02-02T14:58:19.406Z,6.40
2024-02-02T15:00:56.896Z,6.30
2024-02-02T15:03:34.405Z,6.30
2024-02-02T15:06:19.262Z,6.30
2024-02-02T15:09:02.225Z,6.30
2024-02-02T15:11:50.380Z,6.30
2024-02-02T15:14:39.236Z,6.30
2024-02-02T15:17:28.361Z,6.30
2024-02-02T15:20:13.633Z,6.30
2024-02-02T15:22:49.873Z,6.30
2024-02-02T15:26:07.431Z,6.30
2024-02-02T15:29:23.405Z,6.20
2024-02-02T15:45:08.074Z,6.10
2024-02-02T15:47:55.434Z,6.10
2024-02-02T15:53:48.540Z,6.00
2024-02-02T15:56:48.986Z,6.00
2024-02-02T16:02:37.961Z,6.00
2024-02-02T16:05:19.147Z,6.00
2024-02-02T16:08:20.842Z,6.00
2024-02-02T16:11:06.343Z,6.00
2024-02-02T16:13:55.562Z,6.00
2024-02-02T16:16:31.145Z,6.00
2024-02-02T16:19:13.621Z,6.00
2024-02-02T16:24:50.854Z,6.10
2024-02-02T16:27:41.629Z,6.00
2024-02-02T16:30:30.790Z,6.00
2024-02-02T16:33:21.807Z,6.00
2024-02-02T16:36:38.492Z,6.00
2024-02-02T16:39:40.036Z,6.00
2024-02-02T16:42:24.782Z,5.90
2024-02-02T16:47:49.782Z,6.00
2024-02-02T16:53:50.022Z,6.00
2024-02-02T16:56:34.525Z,5.90
2024-02-02T16:59:20.597Z,6.00
2024-02-02T17:02:35.665Z,6.00
2024-02-02T17:06:08.875Z,5.90
2024-02-02T17:08:59.978Z,5.90
2024-02-02T17:14:42.826Z,5.90
2024-02-02T17:21:17.802Z,5.90
2024-02-02T17:24:28.671Z,6.00
2024-02-02T17:27:11.972Z,5.90
2024-02-02T17:29:49.252Z,5.90
2024-02-02T17:32:39.969Z,5.90
2024-02-02T17:35:47.370Z,5.90
2024-02-02T17:38:27.684Z,5.90
2024-02-02T17:41:22.639Z,5.90
2024-02-02T17:44:01.445Z,5.90
2024-02-02T17:47:13.394Z,5.90
2024-02-02T17:49:52.473Z,5.90
2024-02-02T17:52:31.090Z,5.90
2024-02-02T17:55:07.773Z,6.00
2024-02-02T17:57:49.584Z,5.90
2024-02-02T18:00:27.144Z,5.90
2024-02-02T18:03:02.129Z,5.90
2024-02-02T18:05:39.700Z,5.90
2024-02-02T18:08:18.733Z,5.90
2024-02-02T18:11:08.097Z,5.90
2024-02-02T18:13:46.321Z,6.00
2024-02-02T18:16:21.186Z,6.00
2024-02-02T18:18:56.714Z,6.00
2024-02-02T18:21:33.083Z,6.00
2024-02-02T18:24:06.864Z,6.10
2024-02-02T18:26:42.280Z,6.10
2024-02-02T18:29:25.477Z,6.00
2024-02-02T18:32:04.888Z,6.10
2024-02-02T18:35:03.578Z,6.00
2024-02-02T18:43:46.835Z,6.30
2024-02-02T18:46:32.946Z,6.30
2024-02-02T18:49:10.179Z,6.20
2024-02-02T18:51:45.336Z,6.20
2024-02-02T18:54:20.475Z,6.20
2024-02-02T18:57:01.337Z,6.20
2024-02-02T18:59:36.077Z,6.20
2024-02-02T19:02:13.723Z,6.20
2024-02-02T19:04:49.365Z,6.20
2024-02-02T19:07:30.387Z,6.20
2024-02-02T19:10:16.973Z,6.20
2024-02-02T19:15:49.788Z,6.30
2024-02-02T19:18:27.898Z,6.20
2024-02-02T19:21:01.962Z,6.30
2024-02-02T19:23:45.594Z,6.30
2024-02-02T19:26:21.669Z,6.30
2024-02-02T19:28:56.446Z,6.30
2024-02-02T19:31:38.941Z,6.30
2024-02-02T19:34:16.781Z,6.30
2024-02-02T19:36:52.530Z,6.30
2024-02-02T19:39:30.851Z,6.30
2024-02-02T19:42:04.915Z,6.30
2024-02-02T19:44:40.319Z,6.40
2024-02-02T19:47:19.508Z,6.40
2024-02-02T19:50:00.707Z,6.40
2024-02-02T19:52:38.578Z,6.40
2024-02-02T19:55:21.780Z,6.40
2024-02-02T20:01:17.354Z,6.40
2024-02-02T20:04:08.920Z,6.40
2024-02-02T20:06:47.094Z,6.40
2024-02-02T20:09:22.347Z,6.40
2024-02-02T20:11:58.080Z,6.40
2024-02-02T20:14:33.991Z,6.40
2024-02-02T20:17:09.282Z,6.50
2024-02-02T20:19:44.723Z,6.50
2024-02-02T20:22:23.179Z,6.50
2024-02-02T20:25:00.710Z,6.60
2024-02-02T20:27:36.378Z,6.70
2024-02-02T20:30:13.046Z,6.80
2024-02-02T20:32:48.860Z,6.80
2024-02-02T20:35:24.479Z,6.90
2024-02-02T20:38:03.513Z,6.90
2024-02-02T20:40:39.498Z,7.00
2024-02-02T20:43:15.452Z,7.00
2024-02-02T20:45:50.172Z,7.00
2024-02-02T20:48:25.252Z,7.10
2024-02-02T20:51:00.168Z,7.10
2024-02-02T20:53:49.422Z,7.20
2024-02-02T20:56:28.780Z,7.10
2024-02-02T20:59:02.763Z,7.20
2024-02-02T21:01:38.144Z,7.30
2024-02-02T21:04:13.176Z,7.30
2024-02-02T21:06:48.377Z,7.30
2024-02-02T21:15:38.007Z,7.30
2024-02-02T21:18:16.632Z,7.30
2024-02-02T21:20:57.217Z,7.30
2024-02-02T21:23:32.257Z,7.40
2024-02-02T21:26:07.440Z,7.40
2024-02-02T21:28:42.476Z,7.40
2024-02-02T21:31:21.348Z,7.40
2024-02-02T21:33:57.092Z,7.40
2024-02-02T21:36:36.408Z,7.40
2024-02-02T21:39:14.474Z,7.40
2024-02-02T21:41:53.194Z,7.40
2024-02-02T21:44:31.203Z,7.50
2024-02-02T21:47:17.756Z,7.40
2024-02-02T21:49:53.719Z,7.30
2024-02-02T21:52:29.640Z,7.40
2024-02-02T21:55:08.409Z,7.40
2024-02-02T21:57:45.714Z,7.40
2024-02-02T22:00:23.095Z,7.40
2024-02-02T22:03:01.900Z,7.40
2024-02-02T22:05:37.119Z,7.40
2024-02-02T22:08:12.730Z,7.40
2024-02-02T22:10:48.203Z,7.40
2024-02-02T22:13:26.595Z,7.40
2024-02-02T22:27:35.177Z,7.50
2024-02-02T22:30:15.613Z,7.40
2024-02-02T22:32:52.788Z,7.50
2024-02-02T22:35:29.210Z,7.50
2024-02-02T22:38:04.832Z,7.50
2024-02-02T22:40:40.324Z,7.50
2024-02-02T22:43:20.036Z,7.50
2024-02-02T22:46:00.337Z,7.50
2024-02-02T22:48:36.698Z,7.50
2024-02-02T22:51:13.469Z,7.50
2024-02-02T22:53:50.424Z,7.60
2024-02-02T22:56:27.790Z,7.50
2024-02-02T22:59:01.600Z,7.60
2024-02-02T23:01:54.105Z,7.60
2024-02-02T23:04:29.403Z,7.60
2024-02-02T23:07:10.096Z,7.60
2024-02-02T23:09:50.916Z,7.60
2024-02-02T23:12:27.295Z,7.60
2024-02-02T23:15:03.257Z,7.60
2024-02-02T23:17:43.131Z,7.60
2024-02-02T23:20:18.661Z,7.60
2024-02-02T23:22:54.680Z,7.60
2024-02-02T23:25:33.140Z,7.60
2024-02-02T23:28:07.736Z,7.60
2024-02-02T23:30:45.417Z,7.60
2024-02-02T23:33:24.308Z,7.60
2024-02-02T23:36:02.722Z,7.70
2024-02-02T23:38:39.056Z,7.60
2024-02-02T23:41:18.918Z,7.70
2024-02-02T23:43:54.248Z,7.70
2024-02-02T23:46:31.594Z,7.70
2024-02-02T23:49:18.552Z,7.70
2024-02-02T23:51:55.929Z,7.70
2024-02-02T23:54:30.377Z,7.70
2024-02-02T23:57:08.232Z,7.70
2024-02-02T23:59:43.891Z,7.70
